Time;durP1;ratioP1;P1;durP2;ratioP2;P2;SDS_P1;SDS_P2;PMS_P1;PMS_P2;Temp;Humidity;BMP_temperature;BMP_pressure;BME280_temperature;BME280_humidity;BME280_pressure;Samples;Min_cycle;Max_cycle;Signal;HPM_P1;HPM_P2
2022/12/20 00:01:23;;;;;;;3.72;3.42;;;;;;;8.51;93.03;101323.22;6250343;22;20023;-77
2022/12/20 00:03:52;;;;;;;3.85;3.15;;;;;;;8.51;93.28;101325.88;6222904;22;20350;-77
2022/12/20 00:06:20;;;;;;;3.50;3.13;;;;;;;8.53;93.34;101323.56;6250338;22;20043;-77
2022/12/20 00:08:47;;;;;;;3.47;3.17;;;;;;;8.52;92.81;101316.75;6250153;22;20024;-78
2022/12/20 00:11:13;;;;;;;3.47;3.13;;;;;;;8.52;93.17;101322.06;6197858;22;20031;-77
2022/12/20 00:13:40;;;;;;;3.30;3.00;;;;;;;8.58;92.58;101323.81;6249810;22;20024;-77
2022/12/20 00:16:14;;;;;;;3.38;3.10;;;;;;;8.64;92.63;101324.84;6250007;22;20023;-76
2022/12/20 00:18:42;;;;;;;2.75;2.63;;;;;;;8.67;92.29;101326.66;6249903;22;20017;-76
2022/12/20 00:21:11;;;;;;;3.08;2.78;;;;;;;8.74;92.12;101331.09;6250638;22;20024;-76
2022/12/20 00:23:39;;;;;;;3.53;3.03;;;;;;;8.74;91.70;101328.44;6250395;22;20024;-77
2022/12/20 00:26:11;;;;;;;3.00;2.80;;;;;;;8.74;91.78;101327.69;6250346;22;20013;-77
2022/12/20 00:28:39;;;;;;;4.22;3.33;;;;;;;8.77;91.61;101322.31;6250410;22;20079;-77
2022/12/20 00:31:07;;;;;;;3.60;2.75;;;;;;;8.83;91.52;101317.22;6224038;22;20079;-78
2022/12/20 00:33:36;;;;;;;4.45;3.17;;;;;;;8.87;91.41;101321.28;6251245;22;20016;-77
2022/12/20 00:36:04;;;;;;;2.88;2.63;;;;;;;8.86;90.83;101322.47;6251027;22;20016;-77
2022/12/20 00:38:31;;;;;;;4.43;2.75;;;;;;;8.90;91.05;101314.41;6251075;22;20387;-77
2022/12/20 00:41:13;;;;;;;3.15;2.95;;;;;;;8.92;91.28;101314.75;6223687;22;20013;-77
2022/12/20 00:43:40;;;;;;;4.28;2.97;;;;;;;8.88;90.91;101317.47;6250632;22;20013;-78
2022/12/20 00:46:10;;;;;;;2.97;2.78;;;;;;;8.89;91.04;101305.69;6251201;22;20027;-77
2022/12/20 00:48:37;;;;;;;4.10;3.17;;;;;;;8.93;90.88;101317.00;6251080;22;20020;-77
2022/12/20 00:51:21;;;;;;;3.00;2.80;;;;;;;8.96;90.81;101308.19;6223567;22;20021;-77
2022/12/20 00:53:48;;;;;;;3.53;2.90;;;;;;;8.99;90.45;101320.66;6250896;22;20017;-77
2022/12/20 00:56:16;;;;;;;3.65;3.33;;;;;;;8.99;90.68;101328.63;6223942;22;20331;-77
2022/12/20 00:58:43;;;;;;;3.65;3.33;;;;;;;9.01;90.29;101320.25;6250220;22;20073;-77
2022/12/20 01:01:19;;;;;;;2.58;2.38;;;;;;;9.01;90.39;101317.59;6223647;22;20440;-77
2022/12/20 01:03:47;;;;;;;3.65;2.85;;;;;;;9.01;90.48;101314.94;6250893;22;20095;-77
2022/12/20 01:06:14;;;;;;;7.00;3.03;;;;;;;9.06;90.97;101311.03;6251240;22;20547;-77
2022/12/20 01:08:41;;;;;;;2.95;2.75;;;;;;;9.04;90.35;101314.09;6250696;22;20028;-77
2022/12/20 01:11:12;;;;;;;3.22;2.63;;;;;;;9.02;90.56;101319.84;6224475;22;20131;-77
2022/12/20 01:13:42;;;;;;;3.15;2.85;;;;;;;9.01;90.65;101313.03;6224115;22;20020;-78
2022/12/20 01:16:13;;;;;;;3.53;2.92;;;;;;;9.06;90.98;101311.78;6250746;22;20056;-78
2022/12/20 01:18:40;;;;;;;3.13;2.75;;;;;;;9.03;91.45;101312.59;6224020;22;20041;-77
2022/12/20 01:21:10;;;;;;;3.67;3.05;;;;;;;9.03;91.90;101325.88;6251145;22;20013;-77
2022/12/20 01:23:37;;;;;;;3.25;2.90;;;;;;;9.01;92.41;101317.59;6223450;22;20414;-76
2022/12/20 01:26:08;;;;;;;4.03;2.58;;;;;;;8.98;92.84;101321.81;6249947;22;20445;-75
2022/12/20 01:28:35;;;;;;;3.65;2.72;;;;;;;8.98;92.78;101316.50;6251054;22;20075;-75
2022/12/20 01:31:10;;;;;;;3.78;3.00;;;;;;;8.96;93.69;101313.50;6223200;22;20020;-75
2022/12/20 01:33:39;;;;;;;3.55;3.25;;;;;;;8.95;94.45;101309.38;6250848;22;20075;-75
2022/12/20 01:36:15;;;;;;;3.35;3.10;;;;;;;8.92;95.34;101315.50;6250602;22;20013;-75
2022/12/20 01:38:42;;;;;;;3.70;3.42;;;;;;;8.87;96.30;101316.00;6223324;22;20047;-74
2022/12/20 01:41:15;;;;;;;3.60;3.30;;;;;;;8.81;97.28;101307.00;6250587;22;20012;-74
2022/12/20 01:43:56;;;;;;;4.53;3.20;;;;;;;8.78;97.66;101310.53;6223472;22;20465;-74
2022/12/20 01:46:25;;;;;;;4.47;3.08;;;;;;;8.75;98.43;101300.72;6251090;22;20013;-75
2022/12/20 01:49:18;;;;;;;3.88;2.97;;;;;;;8.72;99.14;101300.81;6250505;22;20020;-74
2022/12/20 01:51:56;;;;;;;3.42;3.13;;;;;;;8.68;99.51;101295.56;6250639;22;20017;-75
2022/12/20 01:54:39;;;;;;;3.38;3.15;;;;;;;8.63;99.73;101291.50;6251130;22;20447;-75
2022/12/20 01:57:12;;;;;;;3.40;3.10;;;;;;;8.60;100.00;101287.00;6250192;22;20017;-75
2022/12/20 01:59:41;;;;;;;6.78;3.15;;;;;;;8.57;100.00;101287.06;6250944;22;20091;-75
2022/12/20 02:02:10;;;;;;;6.10;2.97;;;;;;;8.55;100.00;101284.84;6250958;22;20024;-75
2022/12/20 02:04:38;;;;;;;7.35;3.40;;;;;;;8.56;100.00;101282.94;6248492;22;20016;-75
2022/12/20 02:07:07;;;;;;;4.57;3.30;;;;;;;8.53;100.00;101278.44;6248952;22;20009;-75
2022/12/20 02:09:36;;;;;;;3.50;3.20;;;;;;;8.50;100.00;101272.06;6222664;22;20233;-75
2022/12/20 02:12:11;;;;;;;3.08;2.83;;;;;;;8.49;100.00;101275.88;6249914;22;20021;-75
2022/12/20 02:14:59;;;;;;;6.68;3.58;;;;;;;8.48;100.00;101269.06;6222281;22;20021;-76
2022/12/20 02:17:25;;;;;;;4.63;3.38;;;;;;;8.48;100.00;101265.66;6250772;22;20453;-75
2022/12/20 02:20:14;;;;;;;3.67;3.30;;;;;;;8.47;100.00;101259.59;6223128;22;20390;-75
2022/12/20 02:23:02;;;;;;;3.58;3.17;;;;;;;8.46;100.00;101260.00;6223238;22;20048;-75
2022/12/20 02:25:51;;;;;;;3.15;2.95;;;;;;;8.47;100.00;101256.94;6250580;22;20013;-75
2022/12/20 02:28:32;;;;;;;5.25;3.33;;;;;;;8.47;100.00;101259.59;6250486;22;20075;-75
2022/12/20 02:31:09;;;;;;;3.35;3.13;;;;;;;8.46;100.00;101267.97;6250423;22;20442;-77
2022/12/20 02:33:37;;;;;;;3.70;3.38;;;;;;;8.44;100.00;101264.97;6250821;22;20039;-75
2022/12/20 02:36:05;;;;;;;4.13;3.13;;;;;;;8.43;100.00;101261.59;6223579;22;20023;-77
2022/12/20 02:38:37;;;;;;;3.88;3.58;;;;;;;8.44;100.00;101267.63;6222839;22;20016;-75
2022/12/20 02:41:10;;;;;;;7.03;3.75;;;;;;;8.43;100.00;101258.94;6223622;22;20021;-77
2022/12/20 02:46:26;;;;;;;3.90;3.60;;;;;;;8.40;100.00;101241.19;6223838;22;20398;-75
2022/12/20 02:48:57;;;;;;;4.57;3.40;;;;;;;8.40;100.00;101249.13;6197884;22;20048;-76
2022/12/20 02:51:26;;;;;;;3.70;3.38;;;;;;;8.40;100.00;101249.13;6223325;22;20025;-75
2022/12/20 02:53:54;;;;;;;3.63;3.30;;;;;;;8.40;100.00;101243.13;6249929;22;20043;-76
2022/12/20 02:56:29;;;;;;;3.70;3.50;;;;;;;8.38;100.00;101243.53;6250572;22;20059;-75
2022/12/20 02:59:04;;;;;;;3.58;3.22;;;;;;;8.38;100.00;101245.44;6223206;22;20486;-76
2022/12/20 03:01:43;;;;;;;5.20;3.20;;;;;;;8.41;100.00;101239.28;6250487;22;20413;-75
2022/12/20 03:04:11;;;;;;;3.65;3.35;;;;;;;8.40;100.00;101235.16;6223613;22;20052;-76
2022/12/20 03:06:54;;;;;;;4.80;3.40;;;;;;;8.40;100.00;101246.50;6223091;22;20504;-75
2022/12/20 03:09:21;;;;;;;5.00;3.17;;;;;;;8.41;100.00;101242.69;6223166;22;20024;-75
2022/12/20 03:11:47;;;;;;;4.00;3.00;;;;;;;8.42;100.00;101230.16;6250251;22;20020;-76
2022/12/20 03:14:14;;;;;;;3.50;3.20;;;;;;;8.43;100.00;101231.66;6223252;22;20028;-76
2022/12/20 03:16:41;;;;;;;5.93;3.38;;;;;;;8.42;100.00;101240.78;6222163;22;20027;-76
2022/12/20 03:19:08;;;;;;;3.58;3.25;;;;;;;8.42;100.00;101243.44;6223044;22;20433;-76
2022/12/20 03:21:35;;;;;;;4.15;3.05;;;;;;;8.42;100.00;101238.13;6250462;22;20473;-75
2022/12/20 03:24:02;;;;;;;3.20;2.97;;;;;;;8.45;100.00;101239.94;6222555;22;20016;-76
2022/12/20 03:26:29;;;;;;;5.50;3.45;;;;;;;8.46;100.00;101230.84;6198413;22;20025;-76
2022/12/20 03:28:58;;;;;;;3.63;3.15;;;;;;;8.45;100.00;101224.78;6197995;22;20020;-76
2022/12/20 03:31:26;;;;;;;2.95;2.75;;;;;;;8.46;100.00;101234.22;6198328;22;20028;-76
2022/12/20 03:33:54;;;;;;;3.38;3.00;;;;;;;8.47;100.00;101224.38;6222580;22;20447;-76
2022/12/20 03:36:22;;;;;;;3.55;3.25;;;;;;;8.49;100.00;101230.00;6222476;22;20451;-76
2022/12/20 03:38:56;;;;;;;4.03;3.63;;;;;;;8.51;100.00;101235.66;6222603;22;20023;-76
2022/12/20 03:41:26;;;;;;;5.32;3.00;;;;;;;8.50;100.00;101229.59;6198788;22;20470;-76
2022/12/20 03:43:53;;;;;;;4.28;3.20;;;;;;;8.52;100.00;101223.88;6250030;22;20071;-76
2022/12/20 03:46:21;;;;;;;4.97;3.67;;;;;;;8.52;100.00;101214.00;6222989;22;20020;-76
2022/12/20 03:48:48;;;;;;;4.05;3.40;;;;;;;8.53;100.00;101217.41;6249714;22;20443;-76
2022/12/20 03:51:15;;;;;;;3.90;3.53;;;;;;;8.55;100.00;101221.16;6222279;22;20351;-76
2022/12/20 03:53:41;;;;;;;3.67;3.35;;;;;;;8.55;100.00;101212.44;6222522;22;20016;-76
2022/12/20 03:56:09;;;;;;;3.72;3.40;;;;;;;8.55;100.00;101215.84;6223129;22;20024;-76
2022/12/20 03:58:36;;;;;;;4.68;3.38;;;;;;;8.59;100.00;101210.47;6222795;22;20016;-76
2022/12/20 04:01:19;;;;;;;3.80;3.50;;;;;;;8.61;100.00;101213.44;6222193;22;20075;-76
2022/12/20 04:03:46;;;;;;;3.28;3.08;;;;;;;8.62;100.00;101201.66;6222435;22;20107;-76
2022/12/20 04:06:14;;;;;;;3.50;3.20;;;;;;;8.61;100.00;101202.81;6222672;22;20017;-76
2022/12/20 04:08:40;;;;;;;3.70;3.40;;;;;;;8.61;100.00;101195.63;6222668;22;20053;-76
2022/12/20 04:11:15;;;;;;;3.50;3.15;;;;;;;8.64;100.00;101194.03;6222907;22;20024;-76
2022/12/20 04:13:53;;;;;;;2.60;2.38;;;;;;;8.70;100.00;101184.44;6222955;22;20024;-76
2022/12/20 04:16:23;;;;;;;3.45;3.15;;;;;;;8.75;100.00;101188.50;6222913;22;20103;-76
2022/12/20 04:18:51;;;;;;;4.68;3.10;;;;;;;8.77;100.00;101197.53;6222456;22;20481;-76
2022/12/20 04:21:28;;;;;;;3.45;3.13;;;;;;;8.76;100.00;101195.28;6222175;22;20107;-76
2022/12/20 04:23:57;;;;;;;3.15;2.88;;;;;;;8.80;100.00;101185.31;6197858;22;20103;-76
2022/12/20 04:26:32;;;;;;;8.23;2.83;;;;;;;8.82;100.00;101181.09;6223105;22;20013;-76
2022/12/20 04:29:00;;;;;;;3.33;2.97;;;;;;;8.84;100.00;101186.72;6222111;22;20021;-76
2022/12/20 04:31:27;;;;;;;3.75;2.90;;;;;;;8.82;100.00;101180.34;6222709;22;20083;-76
2022/12/20 04:33:54;;;;;;;3.17;2.78;;;;;;;8.83;100.00;101179.16;6221978;22;20021;-76
2022/12/20 04:36:21;;;;;;;3.63;3.00;;;;;;;8.84;100.00;101183.31;6222260;22;20451;-76
2022/12/20 04:38:51;;;;;;;4.10;2.80;;;;;;;8.84;100.00;101178.75;6221995;22;20332;-76
2022/12/20 04:41:21;;;;;;;3.20;2.50;;;;;;;8.87;100.00;101179.84;6222373;22;20351;-76
2022/12/20 04:43:56;;;;;;;4.05;2.90;;;;;;;8.88;100.00;101178.69;6222373;22;20017;-76
2022/12/20 04:46:31;;;;;;;5.93;2.95;;;;;;;8.92;100.00;101182.75;6222468;22;20078;-76
2022/12/20 04:48:59;;;;;;;2.38;2.20;;;;;;;8.97;100.00;101182.25;6221276;22;20024;-76
2022/12/20 04:51:28;;;;;;;4.97;3.38;;;;;;;9.03;100.00;101182.47;6198024;22;20059;-75
2022/12/20 04:53:55;;;;;;;3.10;2.80;;;;;;;9.06;100.00;101171.03;6249238;22;20017;-76
2022/12/20 04:56:29;;;;;;;3.13;2.83;;;;;;;9.10;100.00;101168.28;6222779;22;20437;-75
2022/12/20 04:59:03;;;;;;;3.95;3.00;;;;;;;9.11;100.00;101185.72;6221920;22;20446;-76
2022/12/20 05:01:29;;;;;;;3.88;2.85;;;;;;;9.09;100.00;101172.84;6222093;22;20024;-75
2022/12/20 05:03:56;;;;;;;3.13;2.92;;;;;;;9.06;100.00;101173.69;6221382;22;20018;-74
2022/12/20 05:06:26;;;;;;;3.45;3.03;;;;;;;9.01;100.00;101171.53;6222292;22;20036;-74
2022/12/20 05:08:54;;;;;;;2.70;2.42;;;;;;;8.98;100.00;101167.06;6221778;22;20458;-74
2022/12/20 05:11:20;;;;;;;4.18;3.38;;;;;;;8.98;100.00;101165.13;6221993;22;20047;-74
2022/12/20 05:13:47;;;;;;;5.45;3.35;;;;;;;8.98;100.00;101167.78;6222571;22;20024;-74
2022/12/20 05:16:17;;;;;;;3.17;2.97;;;;;;;8.99;100.00;101160.56;6218194;23;20029;-74
2022/12/20 05:18:44;;;;;;;6.32;3.55;;;;;;;8.97;100.00;101163.66;6217592;23;20017;-75
2022/12/20 05:26:55;;;;;;;3.92;3.25;;;;;;;8.98;100.00;101151.88;6218653;23;20096;-74
2022/12/20 05:29:22;;;;;;;3.50;3.20;;;;;;;8.97;100.00;101145.06;6218478;23;20091;-74
2022/12/20 05:31:48;;;;;;;4.82;3.20;;;;;;;8.97;100.00;101139.00;6218010;23;20052;-74
2022/12/20 05:34:15;;;;;;;4.35;3.08;;;;;;;8.94;100.00;101135.28;6217934;23;20020;-74
2022/12/20 05:36:47;;;;;;;3.72;3.40;;;;;;;8.95;100.00;101142.06;6218645;23;20024;-75
2022/12/20 05:39:13;;;;;;;3.92;3.22;;;;;;;8.95;100.00;101128.81;6218604;23;20021;-74
2022/12/20 05:41:42;;;;;;;3.92;3.35;;;;;;;8.99;100.00;101131.38;6218020;23;20469;-75
2022/12/20 05:44:09;;;;;;;5.50;2.95;;;;;;;9.00;100.00;101130.19;6218592;23;20041;-75
2022/12/20 05:46:40;;;;;;;4.70;3.60;;;;;;;8.99;100.00;101126.81;6218535;23;20021;-75
2022/12/20 05:49:12;;;;;;;6.05;3.00;;;;;;;8.99;100.00;101124.16;6218707;23;20017;-75
2022/12/20 05:51:39;;;;;;;3.55;3.25;;;;;;;9.02;100.00;101117.25;6218631;23;20021;-75
2022/12/20 05:54:26;;;;;;;7.57;3.15;;;;;;;9.02;100.00;101123.31;6219350;23;20088;-75
2022/12/20 05:57:01;;;;;;;4.57;2.97;;;;;;;9.03;100.00;101121.41;6218282;23;20018;-75
2022/12/20 05:59:33;;;;;;;3.10;2.72;;;;;;;9.03;100.00;101106.22;6194904;23;20013;-75
2022/12/20 06:02:02;;;;;;;3.38;3.08;;;;;;;9.06;100.00;101103.88;6217052;23;20558;-75
2022/12/20 06:04:31;;;;;;;6.85;3.38;;;;;;;9.06;100.00;101101.22;6218272;23;20021;-75
2022/12/20 06:07:01;;;;;;;2.97;2.78;;;;;;;9.07;100.00;101092.09;6218148;23;20388;-75
2022/12/20 06:09:29;;;;;;;3.83;2.88;;;;;;;9.07;100.00;101074.25;6220221;22;20072;-75
2022/12/20 06:12:08;;;;;;;7.45;2.90;;;;;;;9.11;100.00;101069.59;6218419;23;20017;-75
2022/12/20 06:14:37;;;;;;;3.53;3.15;;;;;;;9.13;100.00;101071.84;6218255;23;20450;-75
2022/12/20 06:17:04;;;;;;;5.75;2.50;;;;;;;9.17;100.00;101078.53;6217169;23;20415;-76
2022/12/20 06:19:31;;;;;;;7.03;3.10;;;;;;;9.20;100.00;101084.91;6218473;23;20072;-76
2022/12/20 06:21:59;;;;;;;4.43;3.13;;;;;;;9.21;100.00;101079.16;6217971;23;20104;-76
2022/12/20 06:24:46;;;;;;;4.55;3.08;;;;;;;9.24;100.00;101077.56;6216930;23;20459;-76
2022/12/20 06:27:20;;;;;;;3.30;3.10;;;;;;;9.26;100.00;101093.84;6218778;23;20021;-76
2022/12/20 06:29:54;;;;;;;3.20;2.83;;;;;;;9.26;100.00;101096.50;6218187;23;20510;-76
2022/12/20 06:32:24;;;;;;;4.72;3.10;;;;;;;9.25;100.00;101093.09;6217709;23;20028;-76
2022/12/20 06:34:53;;;;;;;3.65;2.72;;;;;;;9.25;100.00;101095.75;6217498;23;20027;-78
2022/12/20 06:37:20;;;;;;;4.68;2.70;;;;;;;9.27;100.00;101092.69;6218241;23;20418;-76
2022/12/20 06:39:46;;;;;;;2.95;2.67;;;;;;;9.33;100.00;101097.06;6218037;23;20105;-76
2022/12/20 06:42:14;;;;;;;4.60;3.00;;;;;;;9.34;100.00;101101.19;6218206;23;20387;-76
2022/12/20 06:44:42;;;;;;;4.32;2.67;;;;;;;9.36;100.00;101098.88;6219047;23;20109;-76
2022/12/20 06:47:09;;;;;;;4.68;2.42;;;;;;;9.39;100.00;101091.22;6220620;22;20076;-76
2022/12/20 06:49:36;;;;;;;2.90;2.70;;;;;;;9.43;100.00;101091.88;6218794;23;20016;-76
2022/12/20 06:52:10;;;;;;;6.78;2.72;;;;;;;9.40;100.00;101098.78;6216239;23;20045;-76
2022/12/20 06:54:43;;;;;;;3.08;2.45;;;;;;;9.38;100.00;101103.75;6216660;23;20040;-76
2022/12/20 06:57:11;;;;;;;5.80;2.60;;;;;;;9.36;100.00;101092.81;6216047;23;20136;-76
2022/12/20 06:59:40;;;;;;;4.72;2.63;;;;;;;9.39;100.00;101094.63;6216234;23;20527;-77
2022/12/20 07:02:09;;;;;;;2.53;2.35;;;;;;;9.39;100.00;101107.16;6218913;23;20104;-77
2022/12/20 07:04:36;;;;;;;3.45;3.10;;;;;;;9.38;100.00;101093.13;6221054;22;20013;-76
2022/12/20 07:07:04;;;;;;;3.13;2.38;;;;;;;9.40;100.00;101090.81;6221039;22;20400;-77
2022/12/20 07:09:30;;;;;;;5.05;2.70;;;;;;;9.43;99.82;101086.56;6221144;22;20029;-76
2022/12/20 07:11:57;;;;;;;2.47;2.22;;;;;;;9.45;99.80;101089.53;6221042;22;20021;-77
2022/12/20 07:14:24;;;;;;;2.85;2.65;;;;;;;9.47;99.60;101093.25;6219990;23;20414;-76
2022/12/20 07:16:51;;;;;;;5.05;2.70;;;;;;;9.48;99.41;101092.09;6245556;22;20443;-77
2022/12/20 07:19:18;;;;;;;2.50;2.40;;;;;;;9.47;99.11;101095.19;6251282;22;20020;-78
2022/12/20 07:21:46;;;;;;;3.25;2.53;;;;;;;9.51;98.42;101093.91;6251467;22;20027;-77
2022/12/20 07:24:12;;;;;;;2.65;2.40;;;;;;;9.52;98.48;101090.09;6251282;22;20517;-77
2022/12/20 07:26:39;;;;;;;2.53;2.33;;;;;;;9.54;98.34;101087.00;6251241;22;20020;-80
2022/12/20 07:29:05;;;;;;;3.80;2.90;;;;;;;9.64;97.89;101099.97;6250468;22;20044;-79
2022/12/20 07:31:40;;;;;;;2.80;2.40;;;;;;;9.67;97.22;101095.72;6251375;22;20092;-79
2022/12/20 07:34:07;;;;;;;3.22;2.40;;;;;;;9.65;97.32;101090.09;6251421;22;20021;-78
2022/12/20 07:36:34;;;;;;;2.78;2.47;;;;;;;9.63;97.26;101087.09;6223589;22;20017;-79
2022/12/20 07:39:00;;;;;;;5.47;2.28;;;;;;;9.63;96.92;101087.09;6251240;22;20044;-78
2022/12/20 07:41:27;;;;;;;4.88;2.22;;;;;;;9.69;96.75;101096.06;6251455;22;20020;-79
2022/12/20 07:43:54;;;;;;;3.70;2.40;;;;;;;9.67;96.51;101099.13;6250814;22;20173;-78
2022/12/20 07:46:21;;;;;;;2.58;2.42;;;;;;;9.67;96.88;101095.72;6251390;22;20032;-77
2022/12/20 07:48:47;;;;;;;2.50;2.30;;;;;;;9.67;97.05;101095.72;6251261;22;20092;-76
2022/12/20 07:51:20;;;;;;;3.50;3.08;;;;;;;9.67;97.13;101093.06;6224432;22;20017;-75
2022/12/20 07:53:59;;;;;;;2.80;2.60;;;;;;;9.63;97.77;101093.16;6251199;22;20080;-76
2022/12/20 07:56:28;;;;;;;2.85;2.30;;;;;;;9.61;97.98;101113.38;6250919;22;20020;-75
2022/12/20 07:58:59;;;;;;;3.00;2.67;;;;;;;9.62;98.16;101117.50;6250061;22;20027;-77
2022/12/20 08:01:29;;;;;;;4.10;2.50;;;;;;;9.60;98.21;101109.22;6223863;22;20021;-77
2022/12/20 08:04:02;;;;;;;3.95;2.25;;;;;;;9.60;98.13;101114.53;6250978;22;20067;-75
2022/12/20 08:06:30;;;;;;;2.55;2.33;;;;;;;9.58;98.14;101106.25;6250839;22;20465;-76
2022/12/20 08:09:01;;;;;;;2.42;2.10;;;;;;;9.57;98.16;101112.75;6250807;22;20414;-77
2022/12/20 08:11:30;;;;;;;4.57;2.38;;;;;;;9.54;98.44;101111.69;6251110;22;20144;-75
2022/12/20 08:13:56;;;;;;;2.10;2.00;;;;;;;9.55;98.69;101096.47;6250243;22;20012;-75
2022/12/20 08:16:24;;;;;;;2.30;2.10;;;;;;;9.56;97.87;101097.97;6223204;22;20028;-76
2022/12/20 08:18:51;;;;;;;2.65;2.22;;;;;;;9.56;98.13;101095.31;6250901;22;20087;-76
2022/12/20 08:21:18;;;;;;;7.63;2.20;;;;;;;9.54;98.40;101094.97;6250988;22;20473;-75
2022/12/20 08:23:44;;;;;;;2.25;2.03;;;;;;;9.52;98.79;101095.41;6251034;22;20244;-75
2022/12/20 08:26:11;;;;;;;5.43;2.13;;;;;;;9.51;98.55;101095.81;6251004;22;20068;-76
2022/12/20 08:28:38;;;;;;;3.50;2.00;;;;;;;9.50;98.46;101097.00;6249758;22;20016;-75
2022/12/20 08:31:07;;;;;;;3.10;2.15;;;;;;;9.55;98.45;101096.47;6250712;22;20024;-75
2022/12/20 08:33:35;;;;;;;3.83;2.00;;;;;;;9.56;98.09;101092.66;6250879;22;20012;-75
2022/12/20 08:36:06;;;;;;;3.70;2.50;;;;;;;9.58;98.06;101096.38;6250772;22;20016;-76
2022/12/20 08:38:34;;;;;;;2.30;1.98;;;;;;;9.55;98.20;101091.16;6250515;22;20017;-75
2022/12/20 08:41:07;;;;;;;3.33;1.90;;;;;;;9.53;98.33;101096.91;6250134;22;20023;-76
2022/12/20 08:43:34;;;;;;;2.17;2.03;;;;;;;9.53;98.09;101088.91;6250743;22;20017;-75
2022/12/20 08:46:01;;;;;;;2.78;2.00;;;;;;;9.56;97.81;101097.97;6250745;22;20418;-78
2022/12/20 08:48:28;;;;;;;2.42;2.22;;;;;;;9.53;98.08;101096.91;6250930;22;20043;-75
2022/12/20 08:50:57;;;;;;;2.13;2.03;;;;;;;9.52;97.80;101086.69;6251733;22;20021;-75
2022/12/20 08:53:24;;;;;;;1.98;1.80;;;;;;;9.52;97.53;101092.00;6251700;22;20410;-75
2022/12/20 08:55:51;;;;;;;2.92;2.38;;;;;;;9.53;97.84;101086.25;6224421;22;20047;-75
2022/12/20 08:58:19;;;;;;;4.65;2.25;;;;;;;9.54;98.01;101093.06;6251658;22;20578;-75
2022/12/20 09:00:46;;;;;;;2.50;2.30;;;;;;;9.54;98.81;101098.38;6251838;22;20021;-76
2022/12/20 09:03:13;;;;;;;3.45;2.40;;;;;;;9.52;99.32;101103.38;6251854;22;20024;-75
2022/12/20 09:05:46;;;;;;;2.40;2.20;;;;;;;9.48;99.60;101092.09;6251682;22;20024;-76
2022/12/20 09:08:15;;;;;;;3.78;2.28;;;;;;;9.45;100.00;101097.50;6251708;22;20120;-76
2022/12/20 09:10:43;;;;;;;2.78;2.55;;;;;;;9.41;100.00;101102.91;6251468;22;20092;-76
2022/12/20 09:13:10;;;;;;;3.08;2.20;;;;;;;9.38;100.00;101098.44;6252097;22;20013;-77
2022/12/20 09:15:36;;;;;;;3.17;2.17;;;;;;;9.36;100.00;101093.56;6251453;22;20020;-76
2022/12/20 09:18:04;;;;;;;5.00;2.50;;;;;;;9.34;100.00;101092.50;6251863;22;20012;-76
2022/12/20 09:20:31;;;;;;;3.22;2.53;;;;;;;9.31;100.00;101091.41;6224357;22;20021;-77
2022/12/20 09:22:58;;;;;;;2.45;2.10;;;;;;;9.31;100.00;101098.63;6252164;22;20472;-76
2022/12/20 09:25:26;;;;;;;6.78;2.60;;;;;;;9.30;100.00;101092.59;6251500;22;20420;-77
2022/12/20 09:27:55;;;;;;;2.97;2.33;;;;;;;9.32;100.00;101092.16;6251914;22;20021;-77
2022/12/20 09:30:23;;;;;;;4.75;2.63;;;;;;;9.32;100.00;101089.50;6251946;22;20021;-77
2022/12/20 09:32:49;;;;;;;4.57;2.30;;;;;;;9.31;100.00;101090.66;6252104;22;20398;-77
2022/12/20 09:35:16;;;;;;;3.60;2.15;;;;;;;9.28;100.00;101094.91;6251904;22;20012;-77
2022/12/20 09:37:48;;;;;;;3.88;2.45;;;;;;;9.29;100.00;101098.31;6251855;22;20434;-77
2022/12/20 09:40:21;;;;;;;2.60;2.40;;;;;;;9.27;100.00;101098.75;6251184;22;20016;-77
2022/12/20 09:42:49;;;;;;;5.32;3.13;;;;;;;9.27;100.00;101095.34;6252141;22;20020;-77
2022/12/20 09:45:24;;;;;;;4.90;2.50;;;;;;;9.26;100.00;101102.56;6251874;22;20013;-77
2022/12/20 09:47:51;;;;;;;3.30;2.75;;;;;;;9.26;100.00;101107.13;6251928;22;20013;-77
2022/12/20 09:50:20;;;;;;;4.18;2.60;;;;;;;9.24;100.00;101112.13;6251887;22;20083;-77
2022/12/20 09:52:54;;;;;;;6.40;2.70;;;;;;;9.24;100.00;101114.75;6251956;22;20012;-77
2022/12/20 09:55:33;;;;;;;3.55;2.70;;;;;;;9.22;100.00;101103.81;6251175;22;20421;-76
2022/12/20 09:58:02;;;;;;;3.85;2.65;;;;;;;9.22;100.00;101106.47;6252026;22;20017;-77
2022/12/20 10:00:34;;;;;;;6.68;2.65;;;;;;;9.22;100.00;101111.78;6251650;22;20048;-76
2022/12/20 10:03:03;;;;;;;2.95;2.60;;;;;;;9.20;100.00;101114.84;6251946;22;20013;-77
2022/12/20 10:05:49;;;;;;;7.90;2.42;;;;;;;9.19;100.00;101108.09;6251867;22;20442;-77
2022/12/20 10:08:31;;;;;;;5.20;2.38;;;;;;;9.21;100.00;101107.63;6251164;22;20012;-77
2022/12/20 10:11:01;;;;;;;;;;;;;;;9.20;100.00;101106.16;6225473;22;20044;-77
2022/12/20 10:13:42;;;;;;;2.45;2.25;;;;;;;9.21;100.00;101099.66;6251918;22;19962;-77
2022/12/20 10:16:41;;;;;;;2.60;2.40;;;;;;;9.22;100.00;101098.50;6251500;22;20167;-77
2022/12/20 10:19:20;;;;;;;3.28;2.78;;;;;;;9.21;100.00;101100.41;6251334;22;20023;-79
2022/12/20 10:21:50;;;;;;;4.88;2.90;;;;;;;9.21;100.00;101092.44;6251199;22;20025;-77
2022/12/20 10:24:29;;;;;;;2.97;2.65;;;;;;;9.24;100.00;101093.50;6251053;22;20067;-75
2022/12/20 10:27:01;;;;;;;5.78;3.08;;;;;;;9.28;100.00;101091.50;6251589;22;20462;-76
2022/12/20 10:29:28;;;;;;;6.50;2.83;;;;;;;9.28;100.00;101091.50;6251341;22;20044;-76
2022/12/20 10:31:59;;;;;;;2.70;2.47;;;;;;;9.30;100.00;101086.53;6224516;22;20075;-76
2022/12/20 10:34:26;;;;;;;4.23;2.47;;;;;;;9.30;100.00;101100.56;6251616;22;20012;-76
2022/12/20 10:37:13;;;;;;;4.60;2.42;;;;;;;9.32;100.00;101082.28;6251114;22;20044;-77
2022/12/20 10:39:42;;;;;;;6.15;2.78;;;;;;;9.33;100.00;101086.44;6251318;22;20012;-77
2022/12/20 10:42:34;;;;;;;3.05;2.80;;;;;;;9.36;100.00;101080.28;6251590;22;20041;-76
2022/12/20 10:45:01;;;;;;;;;;;;;;;9.38;100.00;101076.44;6225528;22;20016;-77
2022/12/20 10:47:38;;;;;;;6.47;2.70;;;;;;;9.38;100.00;101076.44;6251660;22;19982;-75
2022/12/20 10:50:09;;;;;;;2.95;2.75;;;;;;;9.38;100.00;101079.09;6251680;22;20020;-75
2022/12/20 10:52:36;;;;;;;3.55;2.65;;;;;;;9.38;100.00;101076.44;6251363;22;20017;-75
2022/12/20 10:55:36;;;;;;;4.90;2.90;;;;;;;9.36;100.00;101074.97;6251778;22;20025;-75
2022/12/20 10:58:15;;;;;;;3.20;2.90;;;;;;;9.38;100.00;101068.47;6251779;22;20071;-75
2022/12/20 11:00:43;;;;;;;5.05;2.97;;;;;;;9.39;100.00;101064.66;6251219;22;20435;-75
2022/12/20 11:03:21;;;;;;;3.97;2.97;;;;;;;9.39;100.00;101054.03;6251520;22;20079;-76
2022/12/20 11:05:59;;;;;;;4.35;3.17;;;;;;;9.40;100.00;101055.50;6251412;22;20017;-76
2022/12/20 11:08:28;;;;;;;3.42;3.05;;;;;;;9.40;100.00;101055.50;6251611;22;20012;-75
2022/12/20 11:11:16;;;;;;;3.05;2.80;;;;;;;9.40;100.00;101050.94;6250723;22;20020;-76
2022/12/20 11:13:43;;;;;;;4.03;3.00;;;;;;;9.40;100.00;101052.84;6251538;22;20020;-75
2022/12/20 11:16:38;;;;;;;6.68;2.90;;;;;;;9.41;100.00;101052.44;6250951;22;20020;-75
2022/12/20 11:19:30;;;;;;;5.15;2.88;;;;;;;9.43;100.00;101044.03;6251684;22;20468;-77
2022/12/20 11:22:23;;;;;;;3.57;2.97;;;;;;;9.43;100.00;101046.69;6250908;22;20017;-77
2022/12/20 11:25:31;;;;;;;4.90;3.03;;;;;;;9.45;100.00;101045.09;6245933;22;20024;-75
2022/12/20 11:28:18;;;;;;;3.72;3.30;;;;;;;9.47;100.00;101042.78;6127776;23;20018;-76
2022/12/20 11:30:50;;;;;;;6.93;2.90;;;;;;;9.48;100.00;101046.19;6128677;23;20026;-75
2022/12/20 11:33:36;;;;;;;3.38;3.00;;;;;;;9.49;100.00;101051.06;6128067;23;20018;-74
2022/12/20 11:36:34;;;;;;;3.70;3.10;;;;;;;9.48;100.00;101038.19;6127543;23;20032;-75
2022/12/20 11:39:13;;;;;;;5.03;3.60;;;;;;;9.50;100.00;101041.94;6128169;23;20028;-74
2022/12/20 11:42:08;;;;;;;4.95;4.15;;;;;;;9.55;100.00;101035.34;6128394;23;20492;-76
2022/12/20 11:44:54;;;;;;;4.85;3.47;;;;;;;9.53;100.00;101041.09;6128079;23;20093;-77
2022/12/20 11:47:38;;;;;;;4.10;3.80;;;;;;;9.54;100.00;101041.81;6128432;23;20462;-77
2022/12/20 11:50:40;;;;;;;4.07;3.40;;;;;;;9.54;100.00;101041.81;6129077;23;20023;-75
2022/12/20 11:53:15;;;;;;;3.63;3.33;;;;;;;9.54;100.00;101044.47;6012166;23;20083;-75
2022/12/20 11:55:45;;;;;;;4.35;3.65;;;;;;;9.54;100.00;101031.19;6012564;23;20024;-75
2022/12/20 11:58:20;;;;;;;5.32;3.75;;;;;;;9.54;100.00;101028.53;6012199;23;20032;-74